sensor_id;sensor_type;location;lat;lon;timestamp;P1;durP1;ratioP1;P2;durP2;ratioP2
30398;SDS011;17195;50.838;7.214;2023-06-14T00:00:06;7.25;;;5.78;;
30398;SDS011;17195;50.838;7.214;2023-06-14T00:02:32;5.97;;;4.78;;
30398;SDS011;17195;50.838;7.214;2023-06-14T00:04:58;6.07;;;5.40;;
30398;SDS011;17195;50.838;7.214;2023-06-14T00:07:33;6.72;;;5.30;;
30398;SDS011;17195;50.838;7.214;2023-06-14T00:10:03;8.05;;;5.53;;
30398;SDS011;17195;50.838;7.214;2023-06-14T00:12:29;6.47;;;5.13;;
30398;SDS011;17195;50.838;7.214;2023-06-14T00:14:56;7.47;;;5.63;;
30398;SDS011;17195;50.838;7.214;2023-06-14T00:17:22;8.80;;;5.30;;
30398;SDS011;17195;50.838;7.214;2023-06-14T00:19:47;6.20;;;5.60;;
30398;SDS011;17195;50.838;7.214;2023-06-14T00:22:13;7.20;;;5.82;;
30398;SDS011;17195;50.838;7.214;2023-06-14T00:24:38;6.93;;;5.40;;
30398;SDS011;17195;50.838;7.214;2023-06-14T00:27:04;5.75;;;5.15;;
30398;SDS011;17195;50.838;7.214;2023-06-14T00:29:30;8.77;;;5.70;;
30398;SDS011;17195;50.838;7.214;2023-06-14T00:31:55;6.15;;;5.55;;
30398;SDS011;17195;50.838;7.214;2023-06-14T00:34:21;6.07;;;5.38;;
30398;SDS011;17195;50.838;7.214;2023-06-14T00:36:47;5.95;;;5.35;;
30398;SDS011;17195;50.838;7.214;2023-06-14T00:39:12;7.13;;;5.22;;
30398;SDS011;17195;50.838;7.214;2023-06-14T00:44:04;5.65;;;5.15;;
30398;SDS011;17195;50.838;7.214;2023-06-14T00:46:30;7.93;;;5.75;;
30398;SDS011;17195;50.838;7.214;2023-06-14T00:48:55;7.95;;;5.13;;
30398;SDS011;17195;50.838;7.214;2023-06-14T00:51:23;5.72;;;5.22;;
30398;SDS011;17195;50.838;7.214;2023-06-14T00:53:48;7.82;;;5.80;;
30398;SDS011;17195;50.838;7.214;2023-06-14T00:56:15;9.40;;;5.82;;
30398;SDS011;17195;50.838;7.214;2023-06-14T00:58:41;6.68;;;5.28;;
30398;SDS011;17195;50.838;7.214;2023-06-14T01:01:08;5.97;;;5.30;;
30398;SDS011;17195;50.838;7.214;2023-06-14T01:03:33;6.70;;;5.65;;
30398;SDS011;17195;50.838;7.214;2023-06-14T01:06:01;7.63;;;5.55;;
30398;SDS011;17195;50.838;7.214;2023-06-14T01:08:53;6.35;;;5.75;;
30398;SDS011;17195;50.838;7.214;2023-06-14T01:11:47;5.68;;;5.10;;
30398;SDS011;17195;50.838;7.214;2023-06-14T01:14:15;7.22;;;5.68;;
30398;SDS011;17195;50.838;7.214;2023-06-14T01:16:42;7.97;;;5.50;;
30398;SDS011;17195;50.838;7.214;2023-06-14T01:19:10;6.18;;;5.57;;
30398;SDS011;17195;50.838;7.214;2023-06-14T01:21:38;6.22;;;5.20;;
30398;SDS011;17195;50.838;7.214;2023-06-14T01:24:07;7.25;;;5.40;;
30398;SDS011;17195;50.838;7.214;2023-06-14T01:26:33;6.63;;;5.57;;
30398;SDS011;17195;50.838;7.214;2023-06-14T01:29:02;9.10;;;6.88;;
30398;SDS011;17195;50.838;7.214;2023-06-14T01:31:28;6.85;;;6.13;;
30398;SDS011;17195;50.838;7.214;2023-06-14T01:34:04;8.68;;;6.40;;
30398;SDS011;17195;50.838;7.214;2023-06-14T01:36:30;9.00;;;6.05;;
30398;SDS011;17195;50.838;7.214;2023-06-14T01:38:56;7.03;;;6.07;;
30398;SDS011;17195;50.838;7.214;2023-06-14T01:41:23;9.52;;;6.25;;
30398;SDS011;17195;50.838;7.214;2023-06-14T01:43:50;7.00;;;6.30;;
30398;SDS011;17195;50.838;7.214;2023-06-14T01:46:17;6.63;;;5.93;;
30398;SDS011;17195;50.838;7.214;2023-06-14T01:48:42;8.18;;;6.55;;
30398;SDS011;17195;50.838;7.214;2023-06-14T01:51:08;8.35;;;6.93;;
30398;SDS011;17195;50.838;7.214;2023-06-14T01:53:34;7.18;;;6.40;;
30398;SDS011;17195;50.838;7.214;2023-06-14T01:55:59;9.60;;;6.60;;
30398;SDS011;17195;50.838;7.214;2023-06-14T01:58:26;7.50;;;6.45;;
30398;SDS011;17195;50.838;7.214;2023-06-14T02:00:51;9.98;;;6.10;;
30398;SDS011;17195;50.838;7.214;2023-06-14T02:03:20;6.70;;;6.10;;
30398;SDS011;17195;50.838;7.214;2023-06-14T02:05:46;6.45;;;5.80;;
30398;SDS011;17195;50.838;7.214;2023-06-14T02:08:11;8.95;;;6.38;;
30398;SDS011;17195;50.838;7.214;2023-06-14T02:10:37;7.65;;;5.95;;
30398;SDS011;17195;50.838;7.214;2023-06-14T02:13:02;6.88;;;5.60;;
30398;SDS011;17195;50.838;7.214;2023-06-14T02:15:28;10.70;;;6.13;;
30398;SDS011;17195;50.838;7.214;2023-06-14T02:17:58;6.43;;;5.80;;
30398;SDS011;17195;50.838;7.214;2023-06-14T02:20:25;6.65;;;5.40;;
30398;SDS011;17195;50.838;7.214;2023-06-14T02:22:50;6.75;;;5.43;;
30398;SDS011;17195;50.838;7.214;2023-06-14T02:25:16;8.65;;;5.80;;
30398;SDS011;17195;50.838;7.214;2023-06-14T02:27:41;8.88;;;6.55;;
30398;SDS011;17195;50.838;7.214;2023-06-14T02:30:07;6.72;;;5.85;;
30398;SDS011;17195;50.838;7.214;2023-06-14T02:32:33;7.30;;;5.93;;
30398;SDS011;17195;50.838;7.214;2023-06-14T02:35:02;7.20;;;6.03;;
30398;SDS011;17195;50.838;7.214;2023-06-14T02:37:28;8.13;;;5.53;;
30398;SDS011;17195;50.838;7.214;2023-06-14T02:39:55;9.90;;;5.55;;
30398;SDS011;17195;50.838;7.214;2023-06-14T02:42:21;5.95;;;5.30;;
30398;SDS011;17195;50.838;7.214;2023-06-14T02:44:46;6.32;;;5.70;;
30398;SDS011;17195;50.838;7.214;2023-06-14T02:47:16;6.72;;;5.70;;
30398;SDS011;17195;50.838;7.214;2023-06-14T02:49:42;6.78;;;5.75;;
30398;SDS011;17195;50.838;7.214;2023-06-14T02:52:08;12.15;;;6.03;;
30398;SDS011;17195;50.838;7.214;2023-06-14T02:54:34;6.53;;;5.80;;
30398;SDS011;17195;50.838;7.214;2023-06-14T02:56:59;6.47;;;5.88;;
30398;SDS011;17195;50.838;7.214;2023-06-14T02:59:25;8.60;;;5.40;;
30398;SDS011;17195;50.838;7.214;2023-06-14T03:01:51;6.00;;;5.40;;
30398;SDS011;17195;50.838;7.214;2023-06-14T03:04:17;9.30;;;6.20;;
30398;SDS011;17195;50.838;7.214;2023-06-14T03:06:42;6.45;;;5.55;;
30398;SDS011;17195;50.838;7.214;2023-06-14T03:09:09;5.97;;;5.00;;
30398;SDS011;17195;50.838;7.214;2023-06-14T03:11:34;8.18;;;5.50;;
30398;SDS011;17195;50.838;7.214;2023-06-14T03:14:00;8.00;;;5.47;;
30398;SDS011;17195;50.838;7.214;2023-06-14T03:16:29;5.38;;;4.93;;
30398;SDS011;17195;50.838;7.214;2023-06-14T03:18:54;5.70;;;5.20;;
30398;SDS011;17195;50.838;7.214;2023-06-14T03:21:20;5.55;;;5.03;;
30398;SDS011;17195;50.838;7.214;2023-06-14T03:23:46;8.23;;;5.38;;
30398;SDS011;17195;50.838;7.214;2023-06-14T03:26:13;6.07;;;5.40;;
30398;SDS011;17195;50.838;7.214;2023-06-14T03:28:40;5.97;;;5.47;;
30398;SDS011;17195;50.838;7.214;2023-06-14T03:31:06;7.50;;;5.55;;
30398;SDS011;17195;50.838;7.214;2023-06-14T03:33:33;7.50;;;5.70;;
30398;SDS011;17195;50.838;7.214;2023-06-14T03:35:59;6.13;;;5.50;;
30398;SDS011;17195;50.838;7.214;2023-06-14T03:38:25;7.00;;;5.63;;
30398;SDS011;17195;50.838;7.214;2023-06-14T03:40:50;6.65;;;5.05;;
30398;SDS011;17195;50.838;7.214;2023-06-14T03:43:16;6.05;;;5.40;;
30398;SDS011;17195;50.838;7.214;2023-06-14T03:45:41;7.45;;;5.57;;
30398;SDS011;17195;50.838;7.214;2023-06-14T03:48:08;9.70;;;5.65;;
30398;SDS011;17195;50.838;7.214;2023-06-14T03:50:35;7.25;;;5.65;;
30398;SDS011;17195;50.838;7.214;2023-06-14T03:53:03;6.13;;;5.38;;
30398;SDS011;17195;50.838;7.214;2023-06-14T03:55:29;6.00;;;5.40;;
30398;SDS011;17195;50.838;7.214;2023-06-14T03:57:56;5.47;;;4.97;;
30398;SDS011;17195;50.838;7.214;2023-06-14T04:00:22;6.85;;;5.38;;
30398;SDS011;17195;50.838;7.214;2023-06-14T04:02:48;9.57;;;6.22;;
30398;SDS011;17195;50.838;7.214;2023-06-14T04:05:13;6.45;;;5.55;;
30398;SDS011;17195;50.838;7.214;2023-06-14T04:07:41;5.95;;;5.35;;
30398;SDS011;17195;50.838;7.214;2023-06-14T04:10:10;9.30;;;5.13;;
30398;SDS011;17195;50.838;7.214;2023-06-14T04:12:40;8.63;;;5.30;;
30398;SDS011;17195;50.838;7.214;2023-06-14T04:15:06;6.05;;;4.70;;
30398;SDS011;17195;50.838;7.214;2023-06-14T04:17:33;5.35;;;4.80;;
30398;SDS011;17195;50.838;7.214;2023-06-14T04:19:59;5.43;;;4.60;;
30398;SDS011;17195;50.838;7.214;2023-06-14T04:22:25;4.80;;;4.20;;
30398;SDS011;17195;50.838;7.214;2023-06-14T04:24:55;5.32;;;4.47;;
30398;SDS011;17195;50.838;7.214;2023-06-14T04:27:21;5.07;;;4.57;;
30398;SDS011;17195;50.838;7.214;2023-06-14T04:29:50;11.40;;;5.22;;
30398;SDS011;17195;50.838;7.214;2023-06-14T04:32:21;12.27;;;5.05;;
30398;SDS011;17195;50.838;7.214;2023-06-14T04:34:54;5.95;;;4.32;;
30398;SDS011;17195;50.838;7.214;2023-06-14T04:37:20;5.47;;;4.78;;
30398;SDS011;17195;50.838;7.214;2023-06-14T04:39:47;6.00;;;4.50;;
30398;SDS011;17195;50.838;7.214;2023-06-14T04:42:13;5.38;;;4.50;;
30398;SDS011;17195;50.838;7.214;2023-06-14T04:44:40;6.45;;;4.10;;
30398;SDS011;17195;50.838;7.214;2023-06-14T04:47:06;7.45;;;4.70;;
30398;SDS011;17195;50.838;7.214;2023-06-14T04:49:32;6.63;;;5.03;;
30398;SDS011;17195;50.838;7.214;2023-06-14T04:51:59;5.35;;;4.55;;
30398;SDS011;17195;50.838;7.214;2023-06-14T04:54:26;5.57;;;4.60;;
30398;SDS011;17195;50.838;7.214;2023-06-14T04:56:52;5.85;;;4.18;;
30398;SDS011;17195;50.838;7.214;2023-06-14T04:59:20;5.10;;;4.60;;
30398;SDS011;17195;50.838;7.214;2023-06-14T05:01:47;5.15;;;4.50;;
30398;SDS011;17195;50.838;7.214;2023-06-14T05:04:17;4.88;;;4.38;;
30398;SDS011;17195;50.838;7.214;2023-06-14T05:06:43;6.50;;;4.60;;
30398;SDS011;17195;50.838;7.214;2023-06-14T05:09:10;5.03;;;4.47;;
30398;SDS011;17195;50.838;7.214;2023-06-14T05:11:36;5.60;;;4.28;;
30398;SDS011;17195;50.838;7.214;2023-06-14T05:14:04;5.45;;;4.45;;
30398;SDS011;17195;50.838;7.214;2023-06-14T05:16:31;5.00;;;4.50;;
30398;SDS011;17195;50.838;7.214;2023-06-14T05:18:56;5.18;;;4.38;;
30398;SDS011;17195;50.838;7.214;2023-06-14T05:21:23;5.60;;;4.32;;
30398;SDS011;17195;50.838;7.214;2023-06-14T05:23:48;6.20;;;5.15;;
30398;SDS011;17195;50.838;7.214;2023-06-14T05:26:15;5.43;;;4.53;;
30398;SDS011;17195;50.838;7.214;2023-06-14T05:28:41;5.78;;;4.70;;
30398;SDS011;17195;50.838;7.214;2023-06-14T05:31:06;5.35;;;4.85;;
30398;SDS011;17195;50.838;7.214;2023-06-14T05:33:32;8.10;;;5.00;;
30398;SDS011;17195;50.838;7.214;2023-06-14T05:35:57;7.75;;;4.93;;
30398;SDS011;17195;50.838;7.214;2023-06-14T05:38:23;6.68;;;4.60;;
30398;SDS011;17195;50.838;7.214;2023-06-14T05:40:48;5.55;;;4.40;;
30398;SDS011;17195;50.838;7.214;2023-06-14T05:43:14;6.20;;;4.38;;
30398;SDS011;17195;50.838;7.214;2023-06-14T05:45:40;7.13;;;4.32;;
30398;SDS011;17195;50.838;7.214;2023-06-14T05:48:05;6.40;;;4.20;;
30398;SDS011;17195;50.838;7.214;2023-06-14T05:50:31;6.00;;;3.90;;
30398;SDS011;17195;50.838;7.214;2023-06-14T05:52:56;7.63;;;4.32;;
30398;SDS011;17195;50.838;7.214;2023-06-14T05:55:22;5.32;;;3.35;;
30398;SDS011;17195;50.838;7.214;2023-06-14T05:57:47;9.82;;;4.22;;
30398;SDS011;17195;50.838;7.214;2023-06-14T06:00:13;3.85;;;3.55;;
30398;SDS011;17195;50.838;7.214;2023-06-14T06:02:44;5.10;;;3.05;;
30398;SDS011;17195;50.838;7.214;2023-06-14T06:05:10;4.25;;;3.30;;
30398;SDS011;17195;50.838;7.214;2023-06-14T06:07:36;7.75;;;3.53;;
30398;SDS011;17195;50.838;7.214;2023-06-14T06:10:02;4.63;;;3.75;;
30398;SDS011;17195;50.838;7.214;2023-06-14T06:12:29;7.43;;;3.40;;
30398;SDS011;17195;50.838;7.214;2023-06-14T06:14:55;5.00;;;3.40;;
30398;SDS011;17195;50.838;7.214;2023-06-14T06:17:21;5.13;;;3.35;;
30398;SDS011;17195;50.838;7.214;2023-06-14T06:19:46;5.90;;;3.25;;
30398;SDS011;17195;50.838;7.214;2023-06-14T06:22:12;3.25;;;2.40;;
30398;SDS011;17195;50.838;7.214;2023-06-14T06:24:37;4.68;;;2.70;;
30398;SDS011;17195;50.838;7.214;2023-06-14T06:27:03;7.85;;;3.15;;
30398;SDS011;17195;50.838;7.214;2023-06-14T06:29:29;4.25;;;2.85;;
30398;SDS011;17195;50.838;7.214;2023-06-14T06:31:54;6.10;;;3.10;;
30398;SDS011;17195;50.838;7.214;2023-06-14T06:34:21;5.28;;;2.80;;
30398;SDS011;17195;50.838;7.214;2023-06-14T06:36:47;4.50;;;2.95;;
30398;SDS011;17195;50.838;7.214;2023-06-14T06:39:12;6.55;;;2.83;;
30398;SDS011;17195;50.838;7.214;2023-06-14T06:41:39;5.38;;;2.95;;
30398;SDS011;17195;50.838;7.214;2023-06-14T06:44:05;5.28;;;2.97;;
30398;SDS011;17195;50.838;7.214;2023-06-14T06:46:34;6.43;;;3.05;;
30398;SDS011;17195;50.838;7.214;2023-06-14T06:49:00;3.60;;;2.85;;
30398;SDS011;17195;50.838;7.214;2023-06-14T06:51:25;3.70;;;2.83;;
30398;SDS011;17195;50.838;7.214;2023-06-14T06:53:52;6.35;;;3.03;;
30398;SDS011;17195;50.838;7.214;2023-06-14T06:56:19;4.25;;;2.65;;
30398;SDS011;17195;50.838;7.214;2023-06-14T06:58:45;7.47;;;3.00;;
30398;SDS011;17195;50.838;7.214;2023-06-14T07:01:11;5.50;;;2.97;;
30398;SDS011;17195;50.838;7.214;2023-06-14T07:03:38;7.78;;;3.08;;
30398;SDS011;17195;50.838;7.214;2023-06-14T07:06:03;3.85;;;2.50;;
30398;SDS011;17195;50.838;7.214;2023-06-14T07:08:29;4.13;;;2.70;;
30398;SDS011;17195;50.838;7.214;2023-06-14T07:10:55;3.67;;;3.03;;
30398;SDS011;17195;50.838;7.214;2023-06-14T07:13:21;4.18;;;2.78;;
30398;SDS011;17195;50.838;7.214;2023-06-14T07:15:46;4.50;;;2.72;;
30398;SDS011;17195;50.838;7.214;2023-06-14T07:18:12;7.18;;;2.72;;
30398;SDS011;17195;50.838;7.214;2023-06-14T07:20:38;5.80;;;2.20;;
30398;SDS011;17195;50.838;7.214;2023-06-14T07:23:03;5.20;;;2.30;;
30398;SDS011;17195;50.838;7.214;2023-06-14T07:25:30;7.93;;;2.05;;
30398;SDS011;17195;50.838;7.214;2023-06-14T07:27:56;5.85;;;2.03;;
30398;SDS011;17195;50.838;7.214;2023-06-14T07:30:21;4.75;;;1.88;;
30398;SDS011;17195;50.838;7.214;2023-06-14T07:32:50;2.17;;;1.50;;
30398;SDS011;17195;50.838;7.214;2023-06-14T07:35:19;3.08;;;1.63;;
30398;SDS011;17195;50.838;7.214;2023-06-14T07:37:45;4.00;;;1.50;;
30398;SDS011;17195;50.838;7.214;2023-06-14T07:40:12;4.72;;;1.40;;
30398;SDS011;17195;50.838;7.214;2023-06-14T07:42:38;1.65;;;1.25;;
30398;SDS011;17195;50.838;7.214;2023-06-14T07:45:04;3.35;;;1.67;;
30398;SDS011;17195;50.838;7.214;2023-06-14T07:47:31;3.25;;;1.52;;
30398;SDS011;17195;50.838;7.214;2023-06-14T07:49:57;2.60;;;1.30;;
30398;SDS011;17195;50.838;7.214;2023-06-14T07:52:22;3.75;;;1.50;;
30398;SDS011;17195;50.838;7.214;2023-06-14T07:54:48;2.83;;;1.27;;
30398;SDS011;17195;50.838;7.214;2023-06-14T07:57:13;2.78;;;1.20;;
30398;SDS011;17195;50.838;7.214;2023-06-14T07:59:39;1.33;;;1.20;;
30398;SDS011;17195;50.838;7.214;2023-06-14T08:02:04;1.67;;;1.35;;
30398;SDS011;17195;50.838;7.214;2023-06-14T08:04:31;2.38;;;1.38;;
30398;SDS011;17195;50.838;7.214;2023-06-14T08:06:57;2.70;;;1.42;;
30398;SDS011;17195;50.838;7.214;2023-06-14T08:09:22;3.40;;;1.35;;
30398;SDS011;17195;50.838;7.214;2023-06-14T08:11:49;1.92;;;1.40;;
30398;SDS011;17195;50.838;7.214;2023-06-14T08:14:14;1.77;;;1.30;;
30398;SDS011;17195;50.838;7.214;2023-06-14T08:16:40;2.65;;;1.60;;
30398;SDS011;17195;50.838;7.214;2023-06-14T08:19:05;1.67;;;1.40;;
30398;SDS011;17195;50.838;7.214;2023-06-14T08:21:31;2.38;;;1.50;;
30398;SDS011;17195;50.838;7.214;2023-06-14T08:23:58;3.38;;;1.60;;
30398;SDS011;17195;50.838;7.214;2023-06-14T08:26:24;3.42;;;1.40;;
30398;SDS011;17195;50.838;7.214;2023-06-14T08:28:53;1.60;;;1.50;;
30398;SDS011;17195;50.838;7.214;2023-06-14T08:31:20;2.03;;;1.83;;
30398;SDS011;17195;50.838;7.214;2023-06-14T08:33:45;2.13;;;1.40;;
30398;SDS011;17195;50.838;7.214;2023-06-14T08:36:11;3.00;;;1.42;;
30398;SDS011;17195;50.838;7.214;2023-06-14T08:38:37;3.97;;;2.17;;
30398;SDS011;17195;50.838;7.214;2023-06-14T08:41:04;1.98;;;1.33;;
30398;SDS011;17195;50.838;7.214;2023-06-14T08:43:31;2.65;;;1.73;;
30398;SDS011;17195;50.838;7.214;2023-06-14T08:45:58;1.90;;;1.33;;
30398;SDS011;17195;50.838;7.214;2023-06-14T08:48:26;3.00;;;1.83;;
30398;SDS011;17195;50.838;7.214;2023-06-14T08:50:53;6.85;;;1.50;;
30398;SDS011;17195;50.838;7.214;2023-06-14T08:53:26;3.00;;;1.30;;
30398;SDS011;17195;50.838;7.214;2023-06-14T08:55:53;4.40;;;1.38;;
30398;SDS011;17195;50.838;7.214;2023-06-14T08:58:20;3.88;;;1.40;;
30398;SDS011;17195;50.838;7.214;2023-06-14T09:00:49;4.75;;;1.50;;
30398;SDS011;17195;50.838;7.214;2023-06-14T09:03:17;2.42;;;1.60;;
30398;SDS011;17195;50.838;7.214;2023-06-14T09:05:46;4.35;;;1.45;;
30398;SDS011;17195;50.838;7.214;2023-06-14T09:08:11;2.65;;;1.65;;
30398;SDS011;17195;50.838;7.214;2023-06-14T09:10:37;2.08;;;1.60;;
30398;SDS011;17195;50.838;7.214;2023-06-14T09:13:05;4.25;;;1.90;;
30398;SDS011;17195;50.838;7.214;2023-06-14T09:15:31;6.32;;;1.70;;
30398;SDS011;17195;50.838;7.214;2023-06-14T09:17:58;1.98;;;1.40;;
30398;SDS011;17195;50.838;7.214;2023-06-14T09:20:25;1.80;;;1.52;;
30398;SDS011;17195;50.838;7.214;2023-06-14T09:22:51;2.80;;;1.48;;
30398;SDS011;17195;50.838;7.214;2023-06-14T09:25:18;3.03;;;1.45;;
30398;SDS011;17195;50.838;7.214;2023-06-14T09:27:45;2.70;;;1.55;;
30398;SDS011;17195;50.838;7.214;2023-06-14T09:30:11;2.22;;;1.70;;
30398;SDS011;17195;50.838;7.214;2023-06-14T09:32:38;2.80;;;1.50;;
30398;SDS011;17195;50.838;7.214;2023-06-14T09:35:08;2.33;;;1.60;;
30398;SDS011;17195;50.838;7.214;2023-06-14T09:37:34;5.70;;;1.63;;
30398;SDS011;17195;50.838;7.214;2023-06-14T09:40:00;3.90;;;1.40;;
30398;SDS011;17195;50.838;7.214;2023-06-14T09:42:26;2.95;;;1.40;;
30398;SDS011;17195;50.838;7.214;2023-06-14T09:44:53;3.45;;;1.25;;
30398;SDS011;17195;50.838;7.214;2023-06-14T09:47:21;4.00;;;1.63;;
30398;SDS011;17195;50.838;7.214;2023-06-14T09:49:47;1.85;;;1.33;;
30398;SDS011;17195;50.838;7.214;2023-06-14T09:52:14;1.80;;;1.45;;
30398;SDS011;17195;50.838;7.214;2023-06-14T09:54:42;10.43;;;2.55;;
30398;SDS011;17195;50.838;7.214;2023-06-14T09:57:13;2.65;;;1.38;;
30398;SDS011;17195;50.838;7.214;2023-06-14T09:59:43;4.60;;;1.55;;
30398;SDS011;17195;50.838;7.214;2023-06-14T10:02:12;4.70;;;1.30;;
30398;SDS011;17195;50.838;7.214;2023-06-14T10:07:32;1.85;;;1.40;;
30398;SDS011;17195;50.838;7.214;2023-06-14T10:10:08;13.65;;;2.42;;
30398;SDS011;17195;50.838;7.214;2023-06-14T10:12:34;4.00;;;1.60;;
30398;SDS011;17195;50.838;7.214;2023-06-14T10:14:59;4.03;;;1.48;;
30398;SDS011;17195;50.838;7.214;2023-06-14T10:17:49;1.77;;;1.20;;
30398;SDS011;17195;50.838;7.214;2023-06-14T10:20:24;2.40;;;1.58;;
30398;SDS011;17195;50.838;7.214;2023-06-14T10:23:07;2.38;;;1.45;;
30398;SDS011;17195;50.838;7.214;2023-06-14T10:25:36;1.30;;;1.20;;
30398;SDS011;17195;50.838;7.214;2023-06-14T10:28:15;2.30;;;1.40;;
30398;SDS011;17195;50.838;7.214;2023-06-14T10:31:02;1.38;;;1.20;;
30398;SDS011;17195;50.838;7.214;2023-06-14T10:33:32;4.10;;;1.40;;
30398;SDS011;17195;50.838;7.214;2023-06-14T10:36:08;5.72;;;1.60;;
30398;SDS011;17195;50.838;7.214;2023-06-14T10:38:33;4.25;;;1.70;;
30398;SDS011;17195;50.838;7.214;2023-06-14T10:41:01;5.47;;;1.42;;
30398;SDS011;17195;50.838;7.214;2023-06-14T10:43:28;3.03;;;1.50;;
30398;SDS011;17195;50.838;7.214;2023-06-14T10:48:47;5.88;;;1.58;;
30398;SDS011;17195;50.838;7.214;2023-06-14T10:51:19;1.60;;;1.35;;
30398;SDS011;17195;50.838;7.214;2023-06-14T10:53:48;1.77;;;1.48;;
30398;SDS011;17195;50.838;7.214;2023-06-14T10:56:23;2.28;;;1.30;;
30398;SDS011;17195;50.838;7.214;2023-06-14T10:58:53;2.42;;;1.30;;
30398;SDS011;17195;50.838;7.214;2023-06-14T11:01:23;2.58;;;1.30;;
30398;SDS011;17195;50.838;7.214;2023-06-14T11:04:10;3.20;;;1.50;;
30398;SDS011;17195;50.838;7.214;2023-06-14T11:06:46;3.50;;;1.42;;
30398;SDS011;17195;50.838;7.214;2023-06-14T11:12:10;1.27;;;1.17;;
30398;SDS011;17195;50.838;7.214;2023-06-14T11:14:38;4.07;;;2.20;;
30398;SDS011;17195;50.838;7.214;2023-06-14T11:17:04;5.32;;;1.48;;
30398;SDS011;17195;50.838;7.214;2023-06-14T11:19:30;3.92;;;1.50;;
30398;SDS011;17195;50.838;7.214;2023-06-14T11:21:56;6.78;;;1.15;;
30398;SDS011;17195;50.838;7.214;2023-06-14T11:24:22;1.65;;;1.20;;
30398;SDS011;17195;50.838;7.214;2023-06-14T11:26:47;1.95;;;1.08;;
30398;SDS011;17195;50.838;7.214;2023-06-14T11:29:15;2.65;;;1.10;;
30398;SDS011;17195;50.838;7.214;2023-06-14T11:31:44;4.63;;;1.10;;
30398;SDS011;17195;50.838;7.214;2023-06-14T11:34:13;0.80;;;0.80;;
30398;SDS011;17195;50.838;7.214;2023-06-14T11:36:39;2.55;;;1.15;;
30398;SDS011;17195;50.838;7.214;2023-06-14T11:39:05;3.80;;;1.10;;
30398;SDS011;17195;50.838;7.214;2023-06-14T11:41:36;3.28;;;0.98;;
30398;SDS011;17195;50.838;7.214;2023-06-14T11:44:09;1.40;;;0.85;;
30398;SDS011;17195;50.838;7.214;2023-06-14T11:46:35;1.20;;;0.80;;
30398;SDS011;17195;50.838;7.214;2023-06-14T11:49:01;0.95;;;0.90;;
30398;SDS011;17195;50.838;7.214;2023-06-14T11:51:30;1.45;;;0.90;;
30398;SDS011;17195;50.838;7.214;2023-06-14T11:53:56;0.95;;;0.80;;
30398;SDS011;17195;50.838;7.214;2023-06-14T11:56:23;1.80;;;0.77;;
30398;SDS011;17195;50.838;7.214;2023-06-14T11:58:49;1.77;;;1.25;;
30398;SDS011;17195;50.838;7.214;2023-06-14T12:01:17;1.77;;;0.93;;
30398;SDS011;17195;50.838;7.214;2023-06-14T12:03:47;7.80;;;1.20;;
30398;SDS011;17195;50.838;7.214;2023-06-14T12:06:13;1.75;;;0.98;;
30398;SDS011;17195;50.838;7.214;2023-06-14T12:08:40;1.15;;;0.80;;
30398;SDS011;17195;50.838;7.214;2023-06-14T12:11:11;0.98;;;0.80;;
30398;SDS011;17195;50.838;7.214;2023-06-14T12:13:38;4.88;;;0.85;;
30398;SDS011;17195;50.838;7.214;2023-06-14T12:16:08;2.28;;;0.80;;
30398;SDS011;17195;50.838;7.214;2023-06-14T12:18:35;2.45;;;0.93;;
30398;SDS011;17195;50.838;7.214;2023-06-14T12:21:03;1.08;;;0.90;;
30398;SDS011;17195;50.838;7.214;2023-06-14T12:26:11;1.50;;;0.90;;
30398;SDS011;17195;50.838;7.214;2023-06-14T12:28:41;1.42;;;1.02;;
30398;SDS011;17195;50.838;7.214;2023-06-14T12:31:08;3.53;;;0.90;;
30398;SDS011;17195;50.838;7.214;2023-06-14T12:33:34;2.90;;;1.05;;
30398;SDS011;17195;50.838;7.214;2023-06-14T12:35:59;3.85;;;0.93;;
30398;SDS011;17195;50.838;7.214;2023-06-14T12:38:25;3.38;;;1.10;;
30398;SDS011;17195;50.838;7.214;2023-06-14T12:40:50;1.50;;;1.00;;
30398;SDS011;17195;50.838;7.214;2023-06-14T12:43:16;1.92;;;0.93;;
30398;SDS011;17195;50.838;7.214;2023-06-14T12:45:41;1.67;;;1.00;;
30398;SDS011;17195;50.838;7.214;2023-06-14T12:48:07;1.10;;;1.00;;
30398;SDS011;17195;50.838;7.214;2023-06-14T12:50:34;1.23;;;1.00;;
30398;SDS011;17195;50.838;7.214;2023-06-14T12:52:59;2.13;;;1.05;;
30398;SDS011;17195;50.838;7.214;2023-06-14T12:55:25;3.47;;;1.13;;
30398;SDS011;17195;50.838;7.214;2023-06-14T12:57:50;4.15;;;1.40;;
30398;SDS011;17195;50.838;7.214;2023-06-14T13:00:16;4.10;;;1.20;;
30398;SDS011;17195;50.838;7.214;2023-06-14T13:02:43;2.38;;;1.25;;
30398;SDS011;17195;50.838;7.214;2023-06-14T13:05:09;3.60;;;1.08;;
30398;SDS011;17195;50.838;7.214;2023-06-14T13:07:34;4.53;;;1.50;;
30398;SDS011;17195;50.838;7.214;2023-06-14T13:10:00;3.90;;;1.65;;
30398;SDS011;17195;50.838;7.214;2023-06-14T13:12:26;2.35;;;1.30;;
30398;SDS011;17195;50.838;7.214;2023-06-14T13:14:51;4.53;;;1.42;;
30398;SDS011;17195;50.838;7.214;2023-06-14T13:17:17;2.75;;;1.85;;
30398;SDS011;17195;50.838;7.214;2023-06-14T13:19:42;1.55;;;1.42;;
30398;SDS011;17195;50.838;7.214;2023-06-14T13:22:08;1.90;;;1.40;;
30398;SDS011;17195;50.838;7.214;2023-06-14T13:24:33;3.90;;;1.40;;
30398;SDS011;17195;50.838;7.214;2023-06-14T13:26:59;7.70;;;1.60;;
30398;SDS011;17195;50.838;7.214;2023-06-14T13:29:25;6.65;;;1.60;;
30398;SDS011;17195;50.838;7.214;2023-06-14T13:31:51;9.48;;;1.40;;
30398;SDS011;17195;50.838;7.214;2023-06-14T13:34:18;12.55;;;1.35;;
30398;SDS011;17195;50.838;7.214;2023-06-14T13:36:43;3.15;;;1.27;;
30398;SDS011;17195;50.838;7.214;2023-06-14T13:39:09;4.20;;;1.13;;
30398;SDS011;17195;50.838;7.214;2023-06-14T13:41:35;3.78;;;1.02;;
30398;SDS011;17195;50.838;7.214;2023-06-14T13:44:01;4.97;;;1.52;;
30398;SDS011;17195;50.838;7.214;2023-06-14T13:46:29;4.00;;;1.35;;
30398;SDS011;17195;50.838;7.214;2023-06-14T13:48:54;1.92;;;1.20;;
30398;SDS011;17195;50.838;7.214;2023-06-14T13:51:20;1.10;;;1.00;;
30398;SDS011;17195;50.838;7.214;2023-06-14T13:53:47;2.35;;;1.00;;
30398;SDS011;17195;50.838;7.214;2023-06-14T13:56:13;2.05;;;1.20;;
30398;SDS011;17195;50.838;7.214;2023-06-14T13:58:39;3.20;;;1.45;;
30398;SDS011;17195;50.838;7.214;2023-06-14T14:01:05;1.40;;;1.30;;
30398;SDS011;17195;50.838;7.214;2023-06-14T14:03:30;2.95;;;1.20;;
30398;SDS011;17195;50.838;7.214;2023-06-14T14:05:57;2.42;;;1.10;;
30398;SDS011;17195;50.838;7.214;2023-06-14T14:08:22;3.22;;;1.42;;
30398;SDS011;17195;50.838;7.214;2023-06-14T14:10:48;1.63;;;1.23;;
30398;SDS011;17195;50.838;7.214;2023-06-14T14:13:13;3.15;;;1.40;;
30398;SDS011;17195;50.838;7.214;2023-06-14T14:15:39;1.67;;;1.45;;
30398;SDS011;17195;50.838;7.214;2023-06-14T14:18:05;2.08;;;1.27;;
30398;SDS011;17195;50.838;7.214;2023-06-14T14:20:30;2.65;;;1.10;;
30398;SDS011;17195;50.838;7.214;2023-06-14T14:22:56;2.10;;;1.20;;
30398;SDS011;17195;50.838;7.214;2023-06-14T14:25:21;3.33;;;1.60;;
30398;SDS011;17195;50.838;7.214;2023-06-14T14:27:47;2.17;;;1.30;;
30398;SDS011;17195;50.838;7.214;2023-06-14T14:30:13;2.10;;;1.20;;
30398;SDS011;17195;50.838;7.214;2023-06-14T14:32:42;2.05;;;1.20;;
30398;SDS011;17195;50.838;7.214;2023-06-14T14:35:09;2.42;;;1.20;;
30398;SDS011;17195;50.838;7.214;2023-06-14T14:37:34;3.30;;;1.20;;
30398;SDS011;17195;50.838;7.214;2023-06-14T14:40:00;5.22;;;1.20;;
30398;SDS011;17195;50.838;7.214;2023-06-14T14:42:26;2.03;;;1.50;;
30398;SDS011;17195;50.838;7.214;2023-06-14T14:44:52;5.90;;;1.33;;
30398;SDS011;17195;50.838;7.214;2023-06-14T14:47:17;8.02;;;1.60;;
30398;SDS011;17195;50.838;7.214;2023-06-14T14:49:43;14.50;;;1.60;;
30398;SDS011;17195;50.838;7.214;2023-06-14T14:52:08;2.97;;;1.40;;
30398;SDS011;17195;50.838;7.214;2023-06-14T14:54:34;4.07;;;1.27;;
30398;SDS011;17195;50.838;7.214;2023-06-14T14:57:00;1.85;;;1.20;;
30398;SDS011;17195;50.838;7.214;2023-06-14T14:59:26;3.63;;;1.38;;